ADDS METAR Data INFO
IDs: Format: Raw Decoded Include TAF

Data at: 1740 UTC 21 Sep 2017

KDKR 211735Z AUTO 00000KT 10SM BKN001 BKN028 OVC040 30/24 A3001 RMK AO2
KDKR 211715Z AUTO 16005KT 10SM BKN001 BKN028 30/24 A3002 RMK AO2 LTG DSNT S
KDKR 211655Z AUTO 18006KT 8SM BKN001 BKN019 BKN029 30/24 A3003 RMK AO2
KDKR 211635Z AUTO 00000KT 9SM SCT001 BKN070 29/24 A3003 RMK AO2
KDKR 211615Z AUTO 00000KT 8SM SCT001 SCT070 28/24 A3003 RMK AO2
KDKR 211555Z AUTO 14004KT 6SM HZ SCT001 BKN038 BKN070 28/24 A3004 RMK AO2
KDKR 211535Z AUTO 18006KT 7SM SCT001 SCT014 BKN060 28/24 A3004 RMK AO2
KDKR 211515Z AUTO 16006KT 9SM FEW001 BKN014 28/24 A3004 RMK AO2
KDKR 211455Z AUTO 16007KT 8SM FEW001 SCT014 27/24 A3003 RMK AO2
KDKR 211435Z AUTO 00000KT 7SM FEW001 SCT008 27/25 A3003 RMK AO2
KDKR 211415Z AUTO 14006KT 5SM HZ BKN005 BKN035 27/24 A3003 RMK AO2
KDKR 211355Z AUTO 00000KT 6SM BR SCT002 SCT014 BKN020 26/24 A3003 RMK AO2
KDKR 211335Z AUTO 12003KT 5SM BR FEW001 SCT010 BKN016 25/24 A3003 RMK AO2
KDKR 211315Z AUTO 00000KT 4SM BR FEW001 SCT008 BKN019 25/24 A3002 RMK AO2
KDKR 211255Z AUTO 00000KT 4SM BR FEW001 BKN008 BKN018 25/24 A3002 RMK AO2
KDKR 211235Z AUTO 00000KT 3SM BR FEW001 SCT010 BKN018 24/24 A3002 RMK AO2
KDKR 211215Z AUTO 00000KT 3SM BR FEW001 FEW008 BKN018 24/24 A3001 RMK AO2
KDKR 211155Z AUTO 00000KT 6SM BR FEW012 FEW021 24/24 A3001 RMK AO2
KDKR 211135Z AUTO 00000KT 7SM FEW001 BKN014 BKN021 25/24 A3000 RMK AO2
KDKR 211115Z AUTO 00000KT 5SM BR FEW001 BKN014 24/24 A2999 RMK AO2
KDKR 211055Z AUTO 00000KT 5SM BR FEW001 BKN008 BKN014 24/24 A2999 RMK AO2
KDKR 211035Z AUTO 00000KT 5SM BR FEW001 BKN008 24/24 A2998 RMK AO2
KDKR 211015Z AUTO 00000KT 5SM BR FEW001 SCT010 24/24 A2998 RMK AO2
KDKR 210955Z AUTO 00000KT 6SM BR FEW001 24/24 A2997 RMK AO2
KDKR 210935Z AUTO 00000KT 7SM FEW001 FEW011 25/24 A2997 RMK AO2
KDKR 210915Z AUTO 16005KT 8SM FEW001 SCT011 25/24 A2996 RMK AO2
KDKR 210855Z AUTO 17006KT 10SM FEW001 SCT009 BKN014 25/24 A2996 RMK AO2
KDKR 210835Z AUTO 17006KT 10SM FEW001 BKN010 BKN015 25/24 A2997 RMK AO2
KDKR 210815Z AUTO 16005KT 10SM FEW001 BKN010 OVC015 25/24 A2997 RMK AO2
KDKR 210755Z AUTO 17006KT 10SM FEW001 OVC008 25/24 A2998 RMK AO2
KDKR 210735Z AUTO 16009KT 8SM FEW001 OVC008 25/24 A2997 RMK AO2
KDKR 210715Z AUTO 17006KT 9SM FEW001 OVC008 25/24 A2998 RMK AO2
KDKR 210655Z AUTO 16004KT 10SM FEW001 OVC008 25/24 A2999 RMK AO2
KDKR 210635Z AUTO 16006KT 10SM FEW001 OVC010 25/24 A2999 RMK AO2
KDKR 210615Z AUTO 16006KT 8SM FEW001 BKN009 BKN012 25/24 A2998 RMK AO2
KDKR 210555Z AUTO 16005KT 8SM FEW001 BKN010 25/24 A2999 RMK AO2
KDKR 210535Z AUTO 14004KT 7SM FEW001 BKN010 25/24 A2999 RMK AO2
KDKR 210515Z AUTO 00000KT 10SM FEW001 25/24 A2999 RMK AO2
KDKR 210455Z AUTO 14004KT 8SM FEW001 25/24 A2999 RMK AO2
KDKR 210435Z AUTO 16004KT 10SM FEW001 25/24 A2998 RMK AO2
KDKR 210415Z AUTO 15004KT 10SM FEW001 25/24 A2998 RMK AO2
KDKR 210355Z AUTO 15005KT 9SM FEW001 26/24 A2998 RMK AO2
KDKR 210335Z AUTO 16005KT 8SM FEW001 26/24 A2998 RMK AO2
KDKR 210315Z AUTO 15005KT 10SM SCT001 26/24 A2997 RMK AO2
KDKR 210255Z AUTO 14004KT 10SM FEW001 26/24 A2997 RMK AO2
KDKR 210235Z AUTO 13003KT 9SM FEW001 26/24 A2996 RMK AO2
KDKR 210215Z AUTO 14003KT 10SM FEW001 27/24 A2995 RMK AO2
KDKR 210155Z AUTO 15005KT 10SM BKN001 27/24 A2994 RMK AO2
KDKR 210135Z AUTO 13006KT 10SM BKN001 27/24 A2994 RMK AO2
KDKR 210115Z AUTO 12003KT 10SM BKN001 27/23 A2993 RMK AO2
KDKR 210055Z AUTO 13005KT 10SM OVC001 28/23 A2992 RMK AO2
KDKR 210035Z AUTO 13003KT 10SM OVC001 28/23 A2992 RMK AO2
KDKR 210015Z AUTO 14004KT 10SM OVC001 29/23 A2991 RMK AO2
KDKR 202355Z AUTO 15006KT 10SM OVC001 30/24 A2991 RMK AO2
KDKR 202335Z AUTO 16005KT 10SM OVC001 31/24 A2990 RMK AO2
KDKR 202315Z AUTO 15003KT 10SM OVC001 32/23 A2990 RMK AO2
KDKR 202255Z AUTO 16006KT 10SM OVC001 31/23 A2990 RMK AO2
KDKR 202235Z AUTO 16009KT 10SM OVC001 32/23 A2990 RMK AO2
KDKR 202215Z AUTO 17007KT 10SM BKN001 BKN049 OVC070 33/22 A2990 RMK AO2
KDKR 202155Z AUTO 17008KT 10SM BKN001 BKN046 OVC065 33/22 A2990 RMK AO2
KDKR 202135Z AUTO 17008KT 10SM BKN001 BKN043 33/23 A2990 RMK AO2
KDKR 202115Z AUTO 17007KT 10SM BKN001 BKN041 BKN060 33/23 A2990 RMK AO2
KDKR 202055Z AUTO 19006KT 150V220 10SM BKN001 BKN027 OVC100 33/23 A2991 RMK AO2
KDKR 202035Z AUTO 19008KT 10SM BKN001 BKN070 OVC100 33/22 A2991 RMK AO2
KDKR 202015Z AUTO 21009G14KT 10SM BKN001 BKN039 OVC070 33/23 A2992 RMK AO2
KDKR 201955Z AUTO 20008KT 10SM BKN001 OVC044 33/23 A2992 RMK AO2
KDKR 201935Z AUTO 18008KT 10SM BKN001 33/23 A2993 RMK AO2
KDKR 201915Z AUTO 20006G14KT 10SM BKN001 BKN045 OVC065 33/23 A2994 RMK AO2
KDKR 201855Z AUTO 18007KT 10SM SCT001 BKN040 BKN065 32/23 A2995 RMK AO2
KDKR 201835Z AUTO 18007KT 140V200 10SM BKN001 BKN040 OVC070 32/23 A2996 RMK AO2
KDKR 201815Z AUTO 21007KT 10SM BKN001 OVC041 32/23 A2997 RMK AO2
KDKR 201755Z AUTO 17009G14KT 10SM BKN001 OVC040 32/23 A2998 RMK AO2
KDKR 201735Z AUTO 20008KT 10SM BKN001 BKN007 OVC032 32/24 A2998 RMK AO2
KDKR 201715Z AUTO 19009KT 10SM OVC001 31/23 A2999 RMK AO2
KDKR 201655Z AUTO 21008KT 10SM BKN001 BKN029 OVC065 30/23 A2999 RMK AO2
KDKR 201635Z AUTO 20008KT 10SM BKN001 OVC029 30/23 A2999 RMK AO2
KDKR 201615Z AUTO 21009KT 10SM SCT001 BKN029 30/24 A2999 RMK AO2
KDKR 201555Z AUTO 19009KT 10SM SCT001 SCT029 BKN040 29/24 A3000 RMK AO2
KDKR 201535Z AUTO 19010KT 10SM SCT001 SCT025 BKN060 28/23 A3000 RMK AO2
KDKR 201515Z AUTO 22009KT 10SM FEW001 SCT014 BKN025 28/24 A3000 RMK AO2
KDKR 201455Z AUTO 20008KT 10SM FEW001 BKN014 28/24 A2999 RMK AO2
KDKR 201435Z AUTO 18010KT 10SM FEW001 SCT010 SCT075 27/24 A2999 RMK AO2
KDKR 201415Z AUTO 18008KT 9SM FEW001 SCT008 BKN100 27/24 A2998 RMK AO2
KDKR 201355Z AUTO 18009KT 8SM FEW001 SCT008 BKN045 26/24 A2998 RMK AO2
KDKR 201335Z AUTO 17007KT 5SM BR FEW002 SCT031 SCT045 25/24 A2998 RMK AO2
KDKR 201315Z AUTO 17006KT 5SM BR FEW001 SCT060 25/24 A2998 RMK AO2
KDKR 201255Z AUTO 17004KT 3SM BR FEW001 24/24 A2997 RMK AO2
KDKR 201235Z AUTO 15005KT 3SM BR FEW001 24/24 A2996 RMK AO2
KDKR 201215Z AUTO 00000KT 3SM BR FEW001 24/24 A2996 RMK AO2
KDKR 201155Z AUTO 00000KT 5SM BR FEW001 24/24 A2996 RMK AO2
KDKR 201135Z AUTO 17004KT 5SM BR FEW001 24/24 A2996 RMK AO2
KDKR 201115Z AUTO 17004KT 5SM BR FEW001 24/24 A2995 RMK AO2
KDKR 201055Z AUTO 16003KT 5SM BR SCT002 SCT012 25/24 A2995 RMK AO2
KDKR 201035Z AUTO 00000KT 5SM BR SCT001 BKN005 BKN012 25/24 A2995 RMK AO2
KDKR 201015Z AUTO 18004KT 7SM FEW001 BKN006 25/24 A2994 RMK AO2
KDKR 200955Z AUTO 17004KT 8SM SCT001 BKN008 BKN015 25/24 A2994 RMK AO2
KDKR 200935Z AUTO 17005KT 9SM SCT001 BKN012 25/24 A2994 RMK AO2
KDKR 200915Z AUTO 18007KT 10SM FEW001 BKN010 BKN016 25/24 A2994 RMK AO2
KDKR 200855Z AUTO 19007KT 10SM FEW001 BKN011 BKN014 25/24 A2994 RMK AO2
KDKR 200835Z AUTO 19005KT 10SM FEW001 BKN009 BKN017 25/24 A2994 RMK AO2
KDKR 200815Z AUTO 18004KT 10SM FEW001 OVC009 25/24 A2994 RMK AO2
KDKR 200755Z AUTO 18005KT 9SM FEW001 OVC009 25/24 A2993 RMK AO2
KDKR 200735Z AUTO 17005KT 7SM FEW001 BKN009 BKN015 25/24 A2992 RMK AO2
KDKR 200715Z AUTO 17005KT 8SM FEW001 BKN009 25/24 A2993 RMK AO2
KDKR 200655Z AUTO 16005KT 9SM FEW001 BKN011 25/24 A2993 RMK AO2
KDKR 200635Z AUTO 14005KT 6SM BR FEW001 25/24 A2993 RMK AO2
KDKR 200615Z AUTO 15005KT 9SM FEW001 25/24 A2992 RMK AO2
KDKR 200555Z AUTO 15005KT 8SM FEW001 25/24 A2992 RMK AO2